Impacts METAR Board INFO
IDs:

KBWI - Baltimore-Washington, MD, US

Updated at: 2127 UTC 12 Dec 2017
Potential Impact None Slight Moderate High
Time12/09Z 12/10Z 12/11Z 12/12Z 12/13Z 12/14Z 12/15Z 12/16Z 12/17Z 12/18Z 12/19Z 12/20Z 12/21Z
VIS10 10 10 10 10 10 10 10 10 10 10 10 10
CIG140 140 110 100 100 100 100 75 70 80 70 90 100
CoverOVCOVCOVCBKNOVCOVCOVCOVCOVCOVCOVCBKNBKN
FltCatVFRVFRVFRVFRVFRVFRVFRVFRVFRVFRVFRVFRVFR
WX--------------------------
WDir2001701901902700220250250270290290300
WSpd3 5 5 3 4 0 4 6 7 7 15 16 17
WGst-- -- -- -- -- -- -- -- -- -- 24 23 26
Raw hourly METARs
KBWI 120854Z 20003KT 10SM SCT090 BKN140 OVC200 05/00 A2970 RMK AO2 SLP056 T00500000 56040
KBWI 120954Z 17005KT 10SM FEW090 OVC140 04/00 A2965 RMK AO2 SLP041 T00440000
KBWI 121054Z 19005KT 10SM BKN110 OVC140 04/00 A2963 RMK AO2 SLP034 T00440000
KBWI 121154Z 19003KT 10SM BKN100 BKN140 04/00 A2961 RMK AO2 SLP026 T00440000 10056 20044 56030
KBWI 121254Z 27004KT 10SM SCT070 BKN100 OVC140 04/00 A2959 RMK AO2 SLP021 VIRGA OHD T00440000
KBWI 121354Z 00000KT 10SM SCT070 BKN100 OVC140 05/01 A2960 RMK AO2 SLP022 VIRGA E-S T00500006
KBWI 121454Z 22004KT 10SM SCT075 BKN100 OVC140 06/00 A2958 RMK AO2 SLP018 VIRGA E-S T00560000 57008
KBWI 121554Z 25006KT 10SM FEW001 BKN075 OVC100 07/01 A2956 RMK AO2 SLP009 VIRGA E-S FU FEW001 FU PLUME DRTG SE OVR AP T00670006
KBWI 121654Z 25007KT 10SM SCT045 BKN070 OVC100 07/00 A2953 RMK AO2 SLP000 VIRGA OHD T00720000
KBWI 121754Z 27007KT 10SM SCT048 BKN080 OVC100 07/00 A2951 RMK AO2 SLP993 VIRGA S T00720000 10072 20039 56024
KBWI 121854Z 29015G24KT 10SM OVC070 08/M02 A2949 RMK AO2 SLP988 T00781017
KBWI 121954Z 29016G23KT 10SM SCT047 BKN090 BKN160 BKN250 07/M02 A2951 RMK AO2 SLP991 T00721022
KBWI 122054Z 30017G26KT 10SM FEW049 SCT065 BKN100 BKN250 06/M03 A2953 RMK AO2 PK WND 29026/2046 SLP999 T00561033 53006